sensor_id;sensor_type;location;lat;lon;timestamp;P1;durP1;ratioP1;P2;durP2;ratioP2
37593;SDS011;23441;50.856;6.076;2022-10-16T00:00:36;0.20;;;0.20;;
37593;SDS011;23441;50.856;6.076;2022-10-16T00:03:04;0.52;;;0.52;;
37593;SDS011;23441;50.856;6.076;2022-10-16T00:05:30;0.20;;;0.20;;
37593;SDS011;23441;50.856;6.076;2022-10-16T00:07:56;0.20;;;0.20;;
37593;SDS011;23441;50.856;6.076;2022-10-16T00:10:22;0.20;;;0.20;;
37593;SDS011;23441;50.856;6.076;2022-10-16T00:12:48;0.20;;;0.20;;
37593;SDS011;23441;50.856;6.076;2022-10-16T00:15:15;0.20;;;0.20;;
37593;SDS011;23441;50.856;6.076;2022-10-16T00:17:40;0.20;;;0.20;;
37593;SDS011;23441;50.856;6.076;2022-10-16T00:20:06;0.20;;;0.20;;
37593;SDS011;23441;50.856;6.076;2022-10-16T00:22:33;0.20;;;0.20;;
37593;SDS011;23441;50.856;6.076;2022-10-16T00:24:58;0.20;;;0.20;;
37593;SDS011;23441;50.856;6.076;2022-10-16T00:27:24;0.20;;;0.20;;
37593;SDS011;23441;50.856;6.076;2022-10-16T00:29:50;0.20;;;0.20;;
37593;SDS011;23441;50.856;6.076;2022-10-16T00:32:17;0.20;;;0.20;;
37593;SDS011;23441;50.856;6.076;2022-10-16T00:34:43;0.20;;;0.20;;
37593;SDS011;23441;50.856;6.076;2022-10-16T00:37:09;0.20;;;0.20;;
37593;SDS011;23441;50.856;6.076;2022-10-16T00:39:35;0.20;;;0.20;;
37593;SDS011;23441;50.856;6.076;2022-10-16T00:42:00;0.20;;;0.20;;
37593;SDS011;23441;50.856;6.076;2022-10-16T00:47:29;0.20;;;0.20;;
37593;SDS011;23441;50.856;6.076;2022-10-16T00:49:55;0.20;;;0.20;;
37593;SDS011;23441;50.856;6.076;2022-10-16T00:52:27;0.20;;;0.20;;
37593;SDS011;23441;50.856;6.076;2022-10-16T00:54:53;0.20;;;0.20;;
37593;SDS011;23441;50.856;6.076;2022-10-16T00:57:20;0.20;;;0.20;;
37593;SDS011;23441;50.856;6.076;2022-10-16T00:59:47;0.20;;;0.20;;
37593;SDS011;23441;50.856;6.076;2022-10-16T01:02:14;0.20;;;0.20;;
37593;SDS011;23441;50.856;6.076;2022-10-16T01:04:42;0.20;;;0.20;;
37593;SDS011;23441;50.856;6.076;2022-10-16T01:15:31;0.20;;;0.20;;
37593;SDS011;23441;50.856;6.076;2022-10-16T01:18:24;0.20;;;0.20;;
37593;SDS011;23441;50.856;6.076;2022-10-16T01:21:26;0.20;;;0.20;;
37593;SDS011;23441;50.856;6.076;2022-10-16T01:24:40;0.30;;;0.30;;
37593;SDS011;23441;50.856;6.076;2022-10-16T01:32:36;0.20;;;0.20;;
37593;SDS011;23441;50.856;6.076;2022-10-16T01:35:03;0.20;;;0.20;;
37593;SDS011;23441;50.856;6.076;2022-10-16T01:37:40;0.20;;;0.20;;
37593;SDS011;23441;50.856;6.076;2022-10-16T01:40:09;0.20;;;0.20;;
37593;SDS011;23441;50.856;6.076;2022-10-16T01:42:59;0.20;;;0.20;;
37593;SDS011;23441;50.856;6.076;2022-10-16T01:45:46;0.20;;;0.20;;
37593;SDS011;23441;50.856;6.076;2022-10-16T01:48:14;0.20;;;0.20;;
37593;SDS011;23441;50.856;6.076;2022-10-16T01:50:44;0.20;;;0.20;;
37593;SDS011;23441;50.856;6.076;2022-10-16T01:53:22;0.20;;;0.20;;
37593;SDS011;23441;50.856;6.076;2022-10-16T01:55:49;0.20;;;0.20;;
37593;SDS011;23441;50.856;6.076;2022-10-16T01:58:19;0.20;;;0.20;;
37593;SDS011;23441;50.856;6.076;2022-10-16T02:00:47;0.30;;;0.30;;
37593;SDS011;23441;50.856;6.076;2022-10-16T02:03:14;0.20;;;0.20;;
37593;SDS011;23441;50.856;6.076;2022-10-16T02:08:14;0.20;;;0.20;;
37593;SDS011;23441;50.856;6.076;2022-10-16T02:10:39;0.20;;;0.20;;
37593;SDS011;23441;50.856;6.076;2022-10-16T02:13:07;0.40;;;0.40;;
37593;SDS011;23441;50.856;6.076;2022-10-16T02:15:35;0.20;;;0.20;;
37593;SDS011;23441;50.856;6.076;2022-10-16T02:18:04;0.20;;;0.20;;
37593;SDS011;23441;50.856;6.076;2022-10-16T02:20:32;0.20;;;0.20;;
37593;SDS011;23441;50.856;6.076;2022-10-16T02:23:05;0.20;;;0.20;;
37593;SDS011;23441;50.856;6.076;2022-10-16T02:25:37;0.20;;;0.20;;
37593;SDS011;23441;50.856;6.076;2022-10-16T02:28:08;0.20;;;0.20;;
37593;SDS011;23441;50.856;6.076;2022-10-16T02:30:43;0.20;;;0.20;;
37593;SDS011;23441;50.856;6.076;2022-10-16T02:33:10;0.20;;;0.20;;
37593;SDS011;23441;50.856;6.076;2022-10-16T02:35:38;0.20;;;0.20;;
37593;SDS011;23441;50.856;6.076;2022-10-16T02:38:06;0.20;;;0.20;;
37593;SDS011;23441;50.856;6.076;2022-10-16T02:40:34;0.20;;;0.20;;
37593;SDS011;23441;50.856;6.076;2022-10-16T02:43:02;0.20;;;0.20;;
37593;SDS011;23441;50.856;6.076;2022-10-16T02:45:29;0.32;;;0.32;;
37593;SDS011;23441;50.856;6.076;2022-10-16T02:47:55;0.20;;;0.20;;
37593;SDS011;23441;50.856;6.076;2022-10-16T02:50:21;0.20;;;0.20;;
37593;SDS011;23441;50.856;6.076;2022-10-16T02:52:47;0.20;;;0.20;;
37593;SDS011;23441;50.856;6.076;2022-10-16T02:55:13;0.20;;;0.20;;
37593;SDS011;23441;50.856;6.076;2022-10-16T02:57:39;0.20;;;0.20;;
37593;SDS011;23441;50.856;6.076;2022-10-16T03:00:06;0.20;;;0.20;;
37593;SDS011;23441;50.856;6.076;2022-10-16T03:02:34;0.20;;;0.20;;
37593;SDS011;23441;50.856;6.076;2022-10-16T03:04:59;0.20;;;0.20;;
37593;SDS011;23441;50.856;6.076;2022-10-16T03:07:25;0.20;;;0.20;;
37593;SDS011;23441;50.856;6.076;2022-10-16T03:09:51;0.20;;;0.20;;
37593;SDS011;23441;50.856;6.076;2022-10-16T03:12:17;0.20;;;0.20;;
37593;SDS011;23441;50.856;6.076;2022-10-16T03:14:42;0.30;;;0.30;;
37593;SDS011;23441;50.856;6.076;2022-10-16T03:17:08;0.20;;;0.20;;
37593;SDS011;23441;50.856;6.076;2022-10-16T03:19:34;0.20;;;0.20;;
37593;SDS011;23441;50.856;6.076;2022-10-16T03:22:01;0.20;;;0.20;;
37593;SDS011;23441;50.856;6.076;2022-10-16T03:24:27;0.20;;;0.20;;
37593;SDS011;23441;50.856;6.076;2022-10-16T03:26:52;0.20;;;0.20;;
37593;SDS011;23441;50.856;6.076;2022-10-16T03:29:18;0.20;;;0.20;;
37593;SDS011;23441;50.856;6.076;2022-10-16T03:31:44;0.30;;;0.30;;
37593;SDS011;23441;50.856;6.076;2022-10-16T03:34:09;0.20;;;0.20;;
37593;SDS011;23441;50.856;6.076;2022-10-16T03:36:35;0.28;;;0.28;;
37593;SDS011;23441;50.856;6.076;2022-10-16T03:39:01;0.20;;;0.20;;
37593;SDS011;23441;50.856;6.076;2022-10-16T03:41:27;0.20;;;0.20;;
37593;SDS011;23441;50.856;6.076;2022-10-16T03:43:53;0.20;;;0.20;;
37593;SDS011;23441;50.856;6.076;2022-10-16T03:46:19;0.30;;;0.30;;
37593;SDS011;23441;50.856;6.076;2022-10-16T03:48:44;0.28;;;0.28;;
37593;SDS011;23441;50.856;6.076;2022-10-16T03:51:10;0.20;;;0.20;;
37593;SDS011;23441;50.856;6.076;2022-10-16T03:53:36;0.20;;;0.20;;
37593;SDS011;23441;50.856;6.076;2022-10-16T03:56:01;21.17;;;4.20;;
37593;SDS011;23441;50.856;6.076;2022-10-16T03:58:27;0.20;;;0.20;;
37593;SDS011;23441;50.856;6.076;2022-10-16T04:00:54;0.20;;;0.20;;
37593;SDS011;23441;50.856;6.076;2022-10-16T04:03:19;0.20;;;0.20;;
37593;SDS011;23441;50.856;6.076;2022-10-16T04:05:46;0.20;;;0.20;;
37593;SDS011;23441;50.856;6.076;2022-10-16T04:08:12;0.25;;;0.25;;
37593;SDS011;23441;50.856;6.076;2022-10-16T04:10:38;0.20;;;0.20;;
37593;SDS011;23441;50.856;6.076;2022-10-16T04:13:03;0.20;;;0.20;;
37593;SDS011;23441;50.856;6.076;2022-10-16T04:15:29;0.20;;;0.20;;
37593;SDS011;23441;50.856;6.076;2022-10-16T04:17:55;0.20;;;0.20;;
37593;SDS011;23441;50.856;6.076;2022-10-16T04:20:20;0.20;;;0.20;;
37593;SDS011;23441;50.856;6.076;2022-10-16T04:22:46;0.20;;;0.20;;
37593;SDS011;23441;50.856;6.076;2022-10-16T04:25:12;0.20;;;0.20;;
37593;SDS011;23441;50.856;6.076;2022-10-16T04:27:38;0.32;;;0.32;;
37593;SDS011;23441;50.856;6.076;2022-10-16T04:30:04;0.20;;;0.20;;
37593;SDS011;23441;50.856;6.076;2022-10-16T04:32:30;0.20;;;0.20;;
37593;SDS011;23441;50.856;6.076;2022-10-16T04:34:56;0.20;;;0.20;;
37593;SDS011;23441;50.856;6.076;2022-10-16T04:37:25;0.20;;;0.20;;
37593;SDS011;23441;50.856;6.076;2022-10-16T04:39:51;0.20;;;0.20;;
37593;SDS011;23441;50.856;6.076;2022-10-16T04:42:17;0.20;;;0.20;;
37593;SDS011;23441;50.856;6.076;2022-10-16T04:44:43;0.20;;;0.20;;
37593;SDS011;23441;50.856;6.076;2022-10-16T04:47:09;0.20;;;0.20;;
37593;SDS011;23441;50.856;6.076;2022-10-16T04:49:34;0.20;;;0.20;;
37593;SDS011;23441;50.856;6.076;2022-10-16T04:52:00;0.20;;;0.20;;
37593;SDS011;23441;50.856;6.076;2022-10-16T04:54:26;0.20;;;0.20;;
37593;SDS011;23441;50.856;6.076;2022-10-16T04:56:52;0.20;;;0.20;;
37593;SDS011;23441;50.856;6.076;2022-10-16T04:59:18;0.20;;;0.20;;
37593;SDS011;23441;50.856;6.076;2022-10-16T05:01:45;0.20;;;0.20;;
37593;SDS011;23441;50.856;6.076;2022-10-16T05:04:11;0.20;;;0.20;;
37593;SDS011;23441;50.856;6.076;2022-10-16T05:06:37;0.20;;;0.20;;
37593;SDS011;23441;50.856;6.076;2022-10-16T05:09:06;0.20;;;0.20;;
37593;SDS011;23441;50.856;6.076;2022-10-16T05:11:32;0.20;;;0.20;;
37593;SDS011;23441;50.856;6.076;2022-10-16T05:13:58;0.50;;;0.50;;
37593;SDS011;23441;50.856;6.076;2022-10-16T05:16:24;0.20;;;0.20;;
37593;SDS011;23441;50.856;6.076;2022-10-16T05:18:53;0.20;;;0.20;;
37593;SDS011;23441;50.856;6.076;2022-10-16T05:21:19;0.68;;;0.68;;
37593;SDS011;23441;50.856;6.076;2022-10-16T05:23:45;0.20;;;0.20;;
37593;SDS011;23441;50.856;6.076;2022-10-16T05:26:11;0.20;;;0.20;;
37593;SDS011;23441;50.856;6.076;2022-10-16T05:28:37;0.20;;;0.20;;
37593;SDS011;23441;50.856;6.076;2022-10-16T05:31:06;0.20;;;0.20;;
37593;SDS011;23441;50.856;6.076;2022-10-16T05:33:33;0.20;;;0.20;;
37593;SDS011;23441;50.856;6.076;2022-10-16T05:36:02;0.20;;;0.20;;
37593;SDS011;23441;50.856;6.076;2022-10-16T05:38:30;0.20;;;0.20;;
37593;SDS011;23441;50.856;6.076;2022-10-16T05:40:56;0.20;;;0.20;;
37593;SDS011;23441;50.856;6.076;2022-10-16T05:43:22;0.20;;;0.20;;
37593;SDS011;23441;50.856;6.076;2022-10-16T05:46:21;0.20;;;0.20;;
37593;SDS011;23441;50.856;6.076;2022-10-16T05:48:40;0.20;;;0.20;;
37593;SDS011;23441;50.856;6.076;2022-10-16T05:51:06;0.20;;;0.20;;
37593;SDS011;23441;50.856;6.076;2022-10-16T05:53:34;0.30;;;0.30;;
37593;SDS011;23441;50.856;6.076;2022-10-16T05:56:01;0.20;;;0.20;;
37593;SDS011;23441;50.856;6.076;2022-10-16T05:58:34;0.20;;;0.20;;
37593;SDS011;23441;50.856;6.076;2022-10-16T06:01:02;0.20;;;0.20;;
37593;SDS011;23441;50.856;6.076;2022-10-16T06:03:30;0.20;;;0.20;;
37593;SDS011;23441;50.856;6.076;2022-10-16T06:05:56;0.20;;;0.20;;
37593;SDS011;23441;50.856;6.076;2022-10-16T06:08:22;1.65;;;1.55;;
37593;SDS011;23441;50.856;6.076;2022-10-16T06:10:48;0.50;;;0.50;;
37593;SDS011;23441;50.856;6.076;2022-10-16T06:13:25;0.28;;;0.28;;
37593;SDS011;23441;50.856;6.076;2022-10-16T06:15:50;0.20;;;0.20;;
37593;SDS011;23441;50.856;6.076;2022-10-16T06:18:16;0.40;;;0.40;;
37593;SDS011;23441;50.856;6.076;2022-10-16T06:20:42;0.20;;;0.20;;
37593;SDS011;23441;50.856;6.076;2022-10-16T06:23:07;0.95;;;0.75;;
37593;SDS011;23441;50.856;6.076;2022-10-16T06:25:33;0.20;;;0.20;;
37593;SDS011;23441;50.856;6.076;2022-10-16T06:27:59;0.20;;;0.20;;
37593;SDS011;23441;50.856;6.076;2022-10-16T06:30:25;0.20;;;0.20;;
37593;SDS011;23441;50.856;6.076;2022-10-16T06:32:50;0.30;;;0.30;;
37593;SDS011;23441;50.856;6.076;2022-10-16T06:35:16;0.57;;;0.57;;
37593;SDS011;23441;50.856;6.076;2022-10-16T06:37:42;0.20;;;0.20;;
37593;SDS011;23441;50.856;6.076;2022-10-16T06:40:07;0.20;;;0.20;;
37593;SDS011;23441;50.856;6.076;2022-10-16T06:42:33;0.20;;;0.20;;
37593;SDS011;23441;50.856;6.076;2022-10-16T06:44:59;0.20;;;0.20;;
37593;SDS011;23441;50.856;6.076;2022-10-16T06:47:26;0.20;;;0.20;;
37593;SDS011;23441;50.856;6.076;2022-10-16T06:49:52;0.38;;;0.38;;
37593;SDS011;23441;50.856;6.076;2022-10-16T06:52:18;0.20;;;0.20;;
37593;SDS011;23441;50.856;6.076;2022-10-16T06:54:43;0.20;;;0.20;;
37593;SDS011;23441;50.856;6.076;2022-10-16T06:57:09;0.20;;;0.20;;
37593;SDS011;23441;50.856;6.076;2022-10-16T06:59:35;0.28;;;0.28;;
37593;SDS011;23441;50.856;6.076;2022-10-16T07:02:00;0.20;;;0.20;;
37593;SDS011;23441;50.856;6.076;2022-10-16T07:04:26;0.20;;;0.20;;
37593;SDS011;23441;50.856;6.076;2022-10-16T07:06:52;0.20;;;0.20;;
37593;SDS011;23441;50.856;6.076;2022-10-16T07:09:17;0.20;;;0.20;;
37593;SDS011;23441;50.856;6.076;2022-10-16T07:11:43;0.20;;;0.20;;
37593;SDS011;23441;50.856;6.076;2022-10-16T07:14:16;0.20;;;0.20;;
37593;SDS011;23441;50.856;6.076;2022-10-16T07:16:43;0.20;;;0.20;;
37593;SDS011;23441;50.856;6.076;2022-10-16T07:19:09;0.20;;;0.20;;
37593;SDS011;23441;50.856;6.076;2022-10-16T07:21:37;0.20;;;0.20;;
37593;SDS011;23441;50.856;6.076;2022-10-16T07:24:06;0.20;;;0.20;;
37593;SDS011;23441;50.856;6.076;2022-10-16T07:26:36;0.20;;;0.20;;
37593;SDS011;23441;50.856;6.076;2022-10-16T07:29:04;0.20;;;0.20;;
37593;SDS011;23441;50.856;6.076;2022-10-16T07:31:32;0.20;;;0.20;;
37593;SDS011;23441;50.856;6.076;2022-10-16T07:33:59;0.20;;;0.20;;
37593;SDS011;23441;50.856;6.076;2022-10-16T07:36:25;0.20;;;0.20;;
37593;SDS011;23441;50.856;6.076;2022-10-16T07:38:51;0.20;;;0.20;;
37593;SDS011;23441;50.856;6.076;2022-10-16T07:41:17;0.20;;;0.20;;
37593;SDS011;23441;50.856;6.076;2022-10-16T07:43:47;0.20;;;0.20;;
37593;SDS011;23441;50.856;6.076;2022-10-16T07:46:15;0.20;;;0.20;;
37593;SDS011;23441;50.856;6.076;2022-10-16T07:48:41;0.20;;;0.20;;
37593;SDS011;23441;50.856;6.076;2022-10-16T07:51:11;0.40;;;0.40;;
37593;SDS011;23441;50.856;6.076;2022-10-16T07:53:38;0.20;;;0.20;;
37593;SDS011;23441;50.856;6.076;2022-10-16T07:56:04;0.20;;;0.20;;
37593;SDS011;23441;50.856;6.076;2022-10-16T07:58:32;0.20;;;0.20;;
37593;SDS011;23441;50.856;6.076;2022-10-16T08:00:59;0.20;;;0.20;;
37593;SDS011;23441;50.856;6.076;2022-10-16T08:03:29;0.20;;;0.20;;
37593;SDS011;23441;50.856;6.076;2022-10-16T08:05:56;0.20;;;0.20;;
37593;SDS011;23441;50.856;6.076;2022-10-16T08:08:23;0.35;;;0.35;;
37593;SDS011;23441;50.856;6.076;2022-10-16T08:10:49;0.20;;;0.20;;
37593;SDS011;23441;50.856;6.076;2022-10-16T08:13:15;0.20;;;0.20;;
37593;SDS011;23441;50.856;6.076;2022-10-16T08:15:44;0.20;;;0.20;;
37593;SDS011;23441;50.856;6.076;2022-10-16T08:18:11;0.20;;;0.20;;
37593;SDS011;23441;50.856;6.076;2022-10-16T08:20:37;0.30;;;0.30;;
37593;SDS011;23441;50.856;6.076;2022-10-16T08:23:04;0.20;;;0.20;;
37593;SDS011;23441;50.856;6.076;2022-10-16T08:25:30;0.30;;;0.30;;
37593;SDS011;23441;50.856;6.076;2022-10-16T08:27:56;0.20;;;0.20;;
37593;SDS011;23441;50.856;6.076;2022-10-16T08:30:22;0.20;;;0.20;;
37593;SDS011;23441;50.856;6.076;2022-10-16T08:32:48;0.20;;;0.20;;
37593;SDS011;23441;50.856;6.076;2022-10-16T08:35:15;0.20;;;0.20;;
37593;SDS011;23441;50.856;6.076;2022-10-16T08:37:41;5.05;;;0.50;;
37593;SDS011;23441;50.856;6.076;2022-10-16T08:40:13;0.20;;;0.20;;
37593;SDS011;23441;50.856;6.076;2022-10-16T08:51:32;0.20;;;0.20;;
37593;SDS011;23441;50.856;6.076;2022-10-16T08:54:03;0.20;;;0.20;;
37593;SDS011;23441;50.856;6.076;2022-10-16T08:56:31;0.20;;;0.20;;
37593;SDS011;23441;50.856;6.076;2022-10-16T08:58:58;0.30;;;0.30;;
37593;SDS011;23441;50.856;6.076;2022-10-16T09:01:32;0.20;;;0.20;;
37593;SDS011;23441;50.856;6.076;2022-10-16T09:12:39;0.20;;;0.20;;
37593;SDS011;23441;50.856;6.076;2022-10-16T09:22:39;0.20;;;0.20;;
37593;SDS011;23441;50.856;6.076;2022-10-16T09:25:15;0.20;;;0.20;;
37593;SDS011;23441;50.856;6.076;2022-10-16T09:27:45;0.20;;;0.20;;
37593;SDS011;23441;50.856;6.076;2022-10-16T09:30:17;0.20;;;0.20;;
37593;SDS011;23441;50.856;6.076;2022-10-16T09:32:45;0.20;;;0.20;;
37593;SDS011;23441;50.856;6.076;2022-10-16T09:35:19;0.20;;;0.20;;
37593;SDS011;23441;50.856;6.076;2022-10-16T09:37:48;0.52;;;0.52;;
37593;SDS011;23441;50.856;6.076;2022-10-16T09:40:28;0.20;;;0.20;;
37593;SDS011;23441;50.856;6.076;2022-10-16T09:42:57;0.20;;;0.20;;
37593;SDS011;23441;50.856;6.076;2022-10-16T09:45:54;0.20;;;0.20;;
37593;SDS011;23441;50.856;6.076;2022-10-16T09:48:30;0.20;;;0.20;;
37593;SDS011;23441;50.856;6.076;2022-10-16T09:51:16;0.20;;;0.20;;
37593;SDS011;23441;50.856;6.076;2022-10-16T09:53:57;0.20;;;0.20;;
37593;SDS011;23441;50.856;6.076;2022-10-16T09:56:31;0.15;;;0.15;;
37593;SDS011;23441;50.856;6.076;2022-10-16T09:59:00;0.20;;;0.20;;
37593;SDS011;23441;50.856;6.076;2022-10-16T10:01:30;0.20;;;0.20;;
37593;SDS011;23441;50.856;6.076;2022-10-16T10:04:07;0.20;;;0.20;;
37593;SDS011;23441;50.856;6.076;2022-10-16T10:06:34;0.20;;;0.20;;
37593;SDS011;23441;50.856;6.076;2022-10-16T10:09:06;0.45;;;0.45;;
37593;SDS011;23441;50.856;6.076;2022-10-16T10:12:04;0.20;;;0.20;;
37593;SDS011;23441;50.856;6.076;2022-10-16T10:14:38;0.30;;;0.30;;
37593;SDS011;23441;50.856;6.076;2022-10-16T10:17:16;0.10;;;0.10;;
37593;SDS011;23441;50.856;6.076;2022-10-16T10:25:12;0.20;;;0.20;;
37593;SDS011;23441;50.856;6.076;2022-10-16T10:33:18;0.20;;;0.20;;
37593;SDS011;23441;50.856;6.076;2022-10-16T10:35:54;0.20;;;0.20;;
37593;SDS011;23441;50.856;6.076;2022-10-16T10:41:20;0.28;;;0.28;;
37593;SDS011;23441;50.856;6.076;2022-10-16T10:46:44;0.20;;;0.20;;
37593;SDS011;23441;50.856;6.076;2022-10-16T11:03:29;2.25;;;1.10;;
37593;SDS011;23441;50.856;6.076;2022-10-16T11:05:58;3.40;;;1.27;;
37593;SDS011;23441;50.856;6.076;2022-10-16T11:11:25;5.18;;;2.58;;
37593;SDS011;23441;50.856;6.076;2022-10-16T11:14:09;9.48;;;3.55;;
37593;SDS011;23441;50.856;6.076;2022-10-16T11:16:45;2.67;;;1.10;;
37593;SDS011;23441;50.856;6.076;2022-10-16T11:19:22;2.60;;;1.30;;
37593;SDS011;23441;50.856;6.076;2022-10-16T11:24:34;1.95;;;1.00;;
37593;SDS011;23441;50.856;6.076;2022-10-16T11:27:11;1.70;;;0.88;;
37593;SDS011;23441;50.856;6.076;2022-10-16T11:29:47;3.45;;;1.08;;
37593;SDS011;23441;50.856;6.076;2022-10-16T11:32:22;2.35;;;0.88;;
37593;SDS011;23441;50.856;6.076;2022-10-16T11:34:55;2.72;;;1.20;;
37593;SDS011;23441;50.856;6.076;2022-10-16T11:37:34;2.40;;;0.98;;
37593;SDS011;23441;50.856;6.076;2022-10-16T11:40:16;2.60;;;1.20;;
37593;SDS011;23441;50.856;6.076;2022-10-16T11:45:51;1.90;;;0.90;;
37593;SDS011;23441;50.856;6.076;2022-10-16T11:48:24;2.65;;;1.05;;
37593;SDS011;23441;50.856;6.076;2022-10-16T11:50:56;3.55;;;1.15;;
37593;SDS011;23441;50.856;6.076;2022-10-16T11:56:16;2.55;;;1.00;;
37593;SDS011;23441;50.856;6.076;2022-10-16T12:06:38;2.20;;;0.75;;
37593;SDS011;23441;50.856;6.076;2022-10-16T12:09:13;1.92;;;0.70;;
37593;SDS011;23441;50.856;6.076;2022-10-16T12:11:46;1.20;;;0.70;;
37593;SDS011;23441;50.856;6.076;2022-10-16T12:16:39;3.28;;;1.08;;
37593;SDS011;23441;50.856;6.076;2022-10-16T12:19:18;1.75;;;0.70;;
37593;SDS011;23441;50.856;6.076;2022-10-16T12:21:45;5.35;;;1.10;;
37593;SDS011;23441;50.856;6.076;2022-10-16T12:26:52;3.63;;;0.77;;
37593;SDS011;23441;50.856;6.076;2022-10-16T12:29:23;2.38;;;0.80;;
37593;SDS011;23441;50.856;6.076;2022-10-16T12:32:00;1.83;;;1.30;;
37593;SDS011;23441;50.856;6.076;2022-10-16T12:34:28;1.05;;;0.70;;
37593;SDS011;23441;50.856;6.076;2022-10-16T12:37:09;1.20;;;0.60;;
37593;SDS011;23441;50.856;6.076;2022-10-16T12:39:48;3.25;;;0.82;;
37593;SDS011;23441;50.856;6.076;2022-10-16T12:44:53;3.78;;;0.82;;
37593;SDS011;23441;50.856;6.076;2022-10-16T12:47:21;2.47;;;0.77;;
37593;SDS011;23441;50.856;6.076;2022-10-16T12:49:51;1.80;;;0.88;;
37593;SDS011;23441;50.856;6.076;2022-10-16T12:52:28;2.53;;;0.90;;
37593;SDS011;23441;50.856;6.076;2022-10-16T12:55:03;2.67;;;0.80;;
37593;SDS011;23441;50.856;6.076;2022-10-16T13:11:19;1.08;;;0.60;;
37593;SDS011;23441;50.856;6.076;2022-10-16T13:32:56;2.25;;;1.35;;
37593;SDS011;23441;50.856;6.076;2022-10-16T13:35:30;1.90;;;1.00;;
37593;SDS011;23441;50.856;6.076;2022-10-16T13:43:48;13.45;;;6.07;;
37593;SDS011;23441;50.856;6.076;2022-10-16T13:46:17;2.78;;;1.15;;
37593;SDS011;23441;50.856;6.076;2022-10-16T13:48:55;3.15;;;1.38;;
37593;SDS011;23441;50.856;6.076;2022-10-16T13:51:22;4.10;;;1.60;;
37593;SDS011;23441;50.856;6.076;2022-10-16T13:53:48;2.47;;;0.77;;
37593;SDS011;23441;50.856;6.076;2022-10-16T13:56:19;3.55;;;0.60;;
37593;SDS011;23441;50.856;6.076;2022-10-16T13:58:57;1.88;;;1.20;;
37593;SDS011;23441;50.856;6.076;2022-10-16T14:04:09;2.15;;;0.75;;
37593;SDS011;23441;50.856;6.076;2022-10-16T14:06:39;1.27;;;0.70;;
37593;SDS011;23441;50.856;6.076;2022-10-16T14:09:27;1.67;;;0.70;;
37593;SDS011;23441;50.856;6.076;2022-10-16T14:14:20;4.55;;;1.00;;
37593;SDS011;23441;50.856;6.076;2022-10-16T14:16:47;3.03;;;1.00;;
37593;SDS011;23441;50.856;6.076;2022-10-16T14:19:21;2.08;;;1.02;;
37593;SDS011;23441;50.856;6.076;2022-10-16T14:21:50;1.95;;;1.08;;
37593;SDS011;23441;50.856;6.076;2022-10-16T14:26:57;6.40;;;1.00;;
37593;SDS011;23441;50.856;6.076;2022-10-16T14:29:24;1.73;;;0.90;;
37593;SDS011;23441;50.856;6.076;2022-10-16T14:32:02;1.25;;;0.80;;
37593;SDS011;23441;50.856;6.076;2022-10-16T14:34:31;2.33;;;0.80;;
37593;SDS011;23441;50.856;6.076;2022-10-16T14:37:09;1.27;;;0.80;;
37593;SDS011;23441;50.856;6.076;2022-10-16T14:39:51;2.15;;;1.10;;
37593;SDS011;23441;50.856;6.076;2022-10-16T14:42:18;4.07;;;1.88;;
37593;SDS011;23441;50.856;6.076;2022-10-16T14:44:49;0.80;;;0.80;;
37593;SDS011;23441;50.856;6.076;2022-10-16T14:47:20;1.40;;;1.00;;
37593;SDS011;23441;50.856;6.076;2022-10-16T14:49:53;3.42;;;1.13;;
37593;SDS011;23441;50.856;6.076;2022-10-16T14:52:24;3.00;;;0.90;;
37593;SDS011;23441;50.856;6.076;2022-10-16T14:54:51;2.97;;;0.98;;
37593;SDS011;23441;50.856;6.076;2022-10-16T14:57:21;1.95;;;0.80;;
37593;SDS011;23441;50.856;6.076;2022-10-16T14:59:52;2.00;;;0.77;;
37593;SDS011;23441;50.856;6.076;2022-10-16T15:02:27;3.00;;;0.90;;
37593;SDS011;23441;50.856;6.076;2022-10-16T15:04:54;3.03;;;0.80;;
37593;SDS011;23441;50.856;6.076;2022-10-16T15:07:19;2.95;;;1.30;;
37593;SDS011;23441;50.856;6.076;2022-10-16T15:09:45;2.03;;;1.10;;
37593;SDS011;23441;50.856;6.076;2022-10-16T15:12:12;3.60;;;1.95;;
37593;SDS011;23441;50.856;6.076;2022-10-16T15:14:37;2.30;;;0.95;;
37593;SDS011;23441;50.856;6.076;2022-10-16T15:17:03;1.90;;;0.90;;
37593;SDS011;23441;50.856;6.076;2022-10-16T15:19:29;5.18;;;1.25;;
37593;SDS011;23441;50.856;6.076;2022-10-16T15:21:55;2.63;;;1.35;;
37593;SDS011;23441;50.856;6.076;2022-10-16T15:24:21;2.95;;;1.10;;
37593;SDS011;23441;50.856;6.076;2022-10-16T15:26:47;2.55;;;0.88;;
37593;SDS011;23441;50.856;6.076;2022-10-16T15:29:14;2.42;;;1.08;;
37593;SDS011;23441;50.856;6.076;2022-10-16T15:31:40;2.38;;;0.77;;
37593;SDS011;23441;50.856;6.076;2022-10-16T15:34:11;1.95;;;0.82;;
37593;SDS011;23441;50.856;6.076;2022-10-16T15:36:39;3.58;;;1.00;;
37593;SDS011;23441;50.856;6.076;2022-10-16T15:39:16;1.65;;;0.70;;
37593;SDS011;23441;50.856;6.076;2022-10-16T15:41:44;0.98;;;0.75;;
37593;SDS011;23441;50.856;6.076;2022-10-16T15:44:15;1.00;;;0.90;;
37593;SDS011;23441;50.856;6.076;2022-10-16T15:46:42;1.65;;;1.10;;
37593;SDS011;23441;50.856;6.076;2022-10-16T15:49:08;1.65;;;1.15;;
37593;SDS011;23441;50.856;6.076;2022-10-16T15:51:37;1.20;;;1.00;;
37593;SDS011;23441;50.856;6.076;2022-10-16T15:54:04;1.50;;;1.30;;
37593;SDS011;23441;50.856;6.076;2022-10-16T15:56:30;2.55;;;0.93;;
37593;SDS011;23441;50.856;6.076;2022-10-16T15:58:58;3.20;;;1.10;;
37593;SDS011;23441;50.856;6.076;2022-10-16T16:01:25;1.23;;;0.90;;
37593;SDS011;23441;50.856;6.076;2022-10-16T16:03:53;2.85;;;1.23;;
37593;SDS011;23441;50.856;6.076;2022-10-16T16:06:19;2.70;;;1.10;;
37593;SDS011;23441;50.856;6.076;2022-10-16T16:08:45;0.98;;;0.90;;
37593;SDS011;23441;50.856;6.076;2022-10-16T16:11:12;4.78;;;1.10;;
37593;SDS011;23441;50.856;6.076;2022-10-16T16:13:41;4.72;;;1.10;;
37593;SDS011;23441;50.856;6.076;2022-10-16T16:16:07;1.23;;;0.75;;
37593;SDS011;23441;50.856;6.076;2022-10-16T16:18:38;3.38;;;1.10;;
37593;SDS011;23441;50.856;6.076;2022-10-16T16:21:05;1.20;;;1.00;;
37593;SDS011;23441;50.856;6.076;2022-10-16T16:23:31;1.67;;;0.80;;
37593;SDS011;23441;50.856;6.076;2022-10-16T16:28:30;1.63;;;1.00;;
37593;SDS011;23441;50.856;6.076;2022-10-16T16:30:56;4.78;;;1.00;;
37593;SDS011;23441;50.856;6.076;2022-10-16T16:33:22;1.98;;;0.85;;
37593;SDS011;23441;50.856;6.076;2022-10-16T16:35:48;1.25;;;0.80;;
37593;SDS011;23441;50.856;6.076;2022-10-16T16:38:13;1.75;;;1.10;;
37593;SDS011;23441;50.856;6.076;2022-10-16T16:40:39;2.40;;;1.10;;
37593;SDS011;23441;50.856;6.076;2022-10-16T16:43:05;2.55;;;1.20;;
37593;SDS011;23441;50.856;6.076;2022-10-16T16:45:32;1.77;;;1.00;;
37593;SDS011;23441;50.856;6.076;2022-10-16T16:48:00;2.00;;;1.48;;
37593;SDS011;23441;50.856;6.076;2022-10-16T16:50:26;2.78;;;1.65;;
37593;SDS011;23441;50.856;6.076;2022-10-16T16:52:52;2.28;;;1.58;;
37593;SDS011;23441;50.856;6.076;2022-10-16T16:55:17;2.53;;;1.70;;
37593;SDS011;23441;50.856;6.076;2022-10-16T16:57:44;3.95;;;1.80;;
37593;SDS011;23441;50.856;6.076;2022-10-16T17:00:12;3.38;;;1.80;;
37593;SDS011;23441;50.856;6.076;2022-10-16T17:02:38;4.70;;;2.63;;
37593;SDS011;23441;50.856;6.076;2022-10-16T17:05:08;3.60;;;2.42;;
37593;SDS011;23441;50.856;6.076;2022-10-16T17:07:34;4.43;;;2.83;;
37593;SDS011;23441;50.856;6.076;2022-10-16T17:10:01;8.63;;;2.80;;
37593;SDS011;23441;50.856;6.076;2022-10-16T17:12:28;3.75;;;2.83;;
37593;SDS011;23441;50.856;6.076;2022-10-16T17:14:55;3.20;;;2.85;;
37593;SDS011;23441;50.856;6.076;2022-10-16T17:17:21;4.90;;;2.80;;
37593;SDS011;23441;50.856;6.076;2022-10-16T17:19:48;4.80;;;2.72;;
37593;SDS011;23441;50.856;6.076;2022-10-16T17:22:15;7.80;;;2.60;;
37593;SDS011;23441;50.856;6.076;2022-10-16T17:24:41;4.35;;;1.92;;
37593;SDS011;23441;50.856;6.076;2022-10-16T17:27:08;2.72;;;1.80;;
37593;SDS011;23441;50.856;6.076;2022-10-16T17:29:34;2.92;;;1.80;;